createdAt,value
2023-04-29T00:00:16.000Z,10.2
2023-04-29T00:01:22.000Z,10.1
2023-04-29T00:02:28.000Z,10.2
2023-04-29T00:04:41.000Z,10.2
2023-04-29T00:05:46.000Z,10.2
2023-04-29T00:06:52.000Z,10.2
2023-04-29T00:07:58.000Z,10.2
2023-04-29T00:09:04.000Z,10.1
2023-04-29T00:10:10.000Z,10.1
2023-04-29T00:11:16.000Z,10.2
2023-04-29T00:12:22.000Z,10.2
2023-04-29T00:13:28.000Z,10.2
2023-04-29T00:14:34.000Z,10.1
2023-04-29T00:15:40.000Z,10.2
2023-04-29T00:16:46.000Z,10.2
2023-04-29T00:17:52.000Z,10.2
2023-04-29T00:18:58.000Z,10.2
2023-04-29T00:20:04.000Z,10.2
2023-04-29T00:21:10.000Z,10.2
2023-04-29T00:22:16.000Z,10.2
2023-04-29T00:23:22.000Z,10.2
2023-04-29T00:24:28.000Z,10.2
2023-04-29T00:26:40.000Z,10.1
2023-04-29T00:27:46.000Z,10.2
2023-04-29T00:28:52.000Z,10.2
2023-04-29T00:29:58.000Z,10.2
2023-04-29T00:31:04.000Z,10.2
2023-04-29T00:32:10.000Z,10.2
2023-04-29T00:33:16.000Z,10.2
2023-04-29T00:34:22.000Z,10.2
2023-04-29T00:35:28.000Z,10.2
2023-04-29T00:36:34.000Z,10.2
2023-04-29T00:37:40.000Z,10.2
2023-04-29T00:38:46.000Z,10.2
2023-04-29T00:39:52.000Z,10.1
2023-04-29T00:40:58.000Z,10.2
2023-04-29T00:42:04.000Z,10.2
2023-04-29T00:43:10.000Z,10.2
2023-04-29T00:44:16.000Z,10.2
2023-04-29T00:45:22.000Z,10.2
2023-04-29T00:46:28.000Z,10.2
2023-04-29T00:47:34.000Z,10.2
2023-04-29T00:48:39.000Z,10.2
2023-04-29T00:49:46.000Z,10.2
2023-04-29T00:50:52.000Z,10.1
2023-04-29T00:51:58.000Z,10.2
2023-04-29T00:53:04.000Z,10.2
2023-04-29T00:54:10.000Z,10.2
2023-04-29T00:55:16.000Z,10.1
2023-04-29T00:56:22.000Z,10.2
2023-04-29T00:57:28.000Z,10.2
2023-04-29T00:59:40.000Z,10.2
2023-04-29T01:00:46.000Z,10.1
2023-04-29T01:01:52.000Z,10.2
2023-04-29T01:02:57.000Z,10.2
2023-04-29T01:04:03.000Z,10.3
2023-04-29T01:05:10.000Z,10.2
2023-04-29T01:06:16.000Z,10.2
2023-04-29T01:07:22.000Z,10.2
2023-04-29T01:08:28.000Z,10.1
2023-04-29T01:10:40.000Z,10.1
2023-04-29T01:11:46.000Z,10.2
2023-04-29T01:12:52.000Z,10.2
2023-04-29T01:13:58.000Z,10.2
2023-04-29T01:15:04.000Z,10.2
2023-04-29T01:16:10.000Z,10.2
2023-04-29T01:17:15.000Z,10.1
2023-04-29T01:18:21.000Z,10.2
2023-04-29T01:19:27.000Z,10.2
2023-04-29T01:22:45.000Z,10.2
2023-04-29T01:23:50.000Z,10.2
2023-04-29T01:24:55.000Z,10.1
2023-04-29T01:26:01.000Z,10.2
2023-04-29T01:27:07.000Z,10.1
2023-04-29T01:28:13.000Z,10.2
2023-04-29T01:29:19.000Z,10.2
2023-04-29T01:30:25.000Z,10.2
2023-04-29T01:31:32.000Z,10.2
2023-04-29T01:32:38.000Z,10.2
2023-04-29T01:33:44.000Z,10.2
2023-04-29T01:34:50.000Z,10.2
2023-04-29T01:35:55.000Z,10.2
2023-04-29T01:37:01.000Z,10.1
2023-04-29T01:38:06.000Z,10.2
2023-04-29T01:39:12.000Z,10.2
2023-04-29T01:40:18.000Z,10.2
2023-04-29T01:41:24.000Z,10.2
2023-04-29T01:42:30.000Z,10.2
2023-04-29T01:43:36.000Z,10.1
2023-04-29T01:44:42.000Z,10.2
2023-04-29T01:45:48.000Z,10.1
2023-04-29T01:46:55.000Z,10.2
2023-04-29T01:48:01.000Z,10.2
2023-04-29T01:49:07.000Z,9.9
2023-04-29T01:50:13.000Z,10
2023-04-29T01:51:19.000Z,10.2
2023-04-29T01:52:24.000Z,10.1
2023-04-29T01:53:30.000Z,10.2
2023-04-29T01:54:36.000Z,10.2
2023-04-29T01:55:42.000Z,10.2
2023-04-29T01:56:48.000Z,10.1
2023-04-29T01:57:54.000Z,10.2
2023-04-29T01:59:00.000Z,10.2
2023-04-29T02:00:06.000Z,9.9
2023-04-29T02:01:12.000Z,10.2
2023-04-29T02:02:19.000Z,9.9
2023-04-29T02:03:25.000Z,10.2
2023-04-29T02:05:37.000Z,10.2
2023-04-29T02:06:43.000Z,10.2
2023-04-29T02:07:48.000Z,10
2023-04-29T02:08:54.000Z,10.2
2023-04-29T02:11:06.000Z,10.1
2023-04-29T02:12:12.000Z,10.2
2023-04-29T02:13:18.000Z,10.2
2023-04-29T02:14:24.000Z,9.9
2023-04-29T02:16:36.000Z,10.2
2023-04-29T02:17:42.000Z,10.2
2023-04-29T02:18:47.000Z,10.2
2023-04-29T02:19:53.000Z,10.2
2023-04-29T02:20:59.000Z,9.9
2023-04-29T02:22:05.000Z,9.9
2023-04-29T02:23:11.000Z,10.2
2023-04-29T02:24:17.000Z,10.1
2023-04-29T02:25:23.000Z,10.2
2023-04-29T02:26:29.000Z,10.1
2023-04-29T02:27:35.000Z,9.9
2023-04-29T02:28:41.000Z,9.9
2023-04-29T02:29:47.000Z,9.9
2023-04-29T02:30:52.000Z,9.9
2023-04-29T02:31:58.000Z,10.2
2023-04-29T02:33:04.000Z,10
2023-04-29T02:34:10.000Z,10.2
2023-04-29T02:35:16.000Z,10.2
2023-04-29T02:36:22.000Z,9.9
2023-04-29T02:37:28.000Z,9.9
2023-04-29T02:38:34.000Z,10.2
2023-04-29T02:39:40.000Z,10.2
2023-04-29T02:40:46.000Z,9.9
2023-04-29T02:41:52.000Z,9.9
2023-04-29T02:42:58.000Z,10.2
2023-04-29T02:44:05.000Z,9.9
2023-04-29T02:45:11.000Z,9.9
2023-04-29T02:46:16.000Z,10.1
2023-04-29T02:47:22.000Z,9.9
2023-04-29T02:49:34.000Z,10.1
2023-04-29T02:50:40.000Z,9.9
2023-04-29T02:51:46.000Z,10.3
2023-04-29T02:52:52.000Z,9.9
2023-04-29T02:53:58.000Z,10.2
2023-04-29T02:55:04.000Z,9.9
2023-04-29T02:56:10.000Z,9.9
2023-04-29T02:57:16.000Z,9.9
2023-04-29T02:58:22.000Z,9.9
2023-04-29T03:00:35.000Z,9.9
2023-04-29T03:01:40.000Z,10.2
2023-04-29T03:02:46.000Z,9.9
2023-04-29T03:03:52.000Z,9.9
2023-04-29T03:04:58.000Z,9.9
2023-04-29T03:06:04.000Z,9.9
2023-04-29T03:07:10.000Z,9.9
2023-04-29T03:08:16.000Z,9.9
2023-04-29T03:09:22.000Z,9.9
2023-04-29T03:11:34.000Z,10.3
2023-04-29T03:12:40.000Z,9.9
2023-04-29T03:13:46.000Z,9.9
2023-04-29T03:14:53.000Z,9.7
2023-04-29T03:15:58.000Z,9.9
2023-04-29T03:17:04.000Z,9.9
2023-04-29T03:18:10.000Z,9.9
2023-04-29T03:19:16.000Z,9.9
2023-04-29T03:20:22.000Z,9.9
2023-04-29T03:21:28.000Z,9.9
2023-04-29T03:22:34.000Z,9.9
2023-04-29T03:23:40.000Z,10.2
2023-04-29T03:24:46.000Z,10.2
2023-04-29T03:25:52.000Z,10.1
2023-04-29T03:26:58.000Z,9.9
2023-04-29T03:28:04.000Z,9.9
2023-04-29T03:29:10.000Z,9.9
2023-04-29T03:30:17.000Z,9.9
2023-04-29T03:31:22.000Z,10
2023-04-29T03:32:28.000Z,9.9
2023-04-29T03:33:34.000Z,10
2023-04-29T03:34:40.000Z,9.9
2023-04-29T03:35:46.000Z,9.9
2023-04-29T03:36:52.000Z,9.7
2023-04-29T03:39:04.000Z,9.7
2023-04-29T03:40:10.000Z,9.9
2023-04-29T03:41:17.000Z,9.9
2023-04-29T03:42:23.000Z,9.8
2023-04-29T03:44:35.000Z,9.9
2023-04-29T03:45:40.000Z,9.9
2023-04-29T03:46:46.000Z,9.9
2023-04-29T03:47:52.000Z,9.7
2023-04-29T03:48:58.000Z,9.9
2023-04-29T03:50:04.000Z,9.8
2023-04-29T03:51:10.000Z,9.9
2023-04-29T03:52:16.000Z,9.9
2023-04-29T03:53:22.000Z,9.9
2023-04-29T03:55:34.000Z,9.9
2023-04-29T03:56:40.000Z,9.9
2023-04-29T03:57:45.000Z,9.9
2023-04-29T03:58:51.000Z,9.9
2023-04-29T03:59:57.000Z,9.9
2023-04-29T04:01:03.000Z,9.9
2023-04-29T04:02:09.000Z,9.9
2023-04-29T04:03:15.000Z,9.9
2023-04-29T04:04:21.000Z,9.9
2023-04-29T04:05:27.000Z,9.9
2023-04-29T04:06:33.000Z,9.9
2023-04-29T04:07:39.000Z,9.9
2023-04-29T04:08:44.000Z,9.9
2023-04-29T04:09:49.000Z,9.9
2023-04-29T04:10:56.000Z,9.9
2023-04-29T04:12:02.000Z,9.7
2023-04-29T04:13:08.000Z,9.9
2023-04-29T04:14:14.000Z,9.9
2023-04-29T04:15:20.000Z,9.9
2023-04-29T04:16:26.000Z,9.9
2023-04-29T04:17:32.000Z,9.9
2023-04-29T04:18:38.000Z,9.9
2023-04-29T04:19:44.000Z,9.9
2023-04-29T04:20:50.000Z,9.9
2023-04-29T04:21:56.000Z,10
2023-04-29T04:23:03.000Z,9.9
2023-04-29T04:24:08.000Z,9.9
2023-04-29T04:25:14.000Z,9.9
2023-04-29T04:26:20.000Z,9.9
2023-04-29T04:27:26.000Z,9.9
2023-04-29T04:28:32.000Z,9.7
2023-04-29T04:29:38.000Z,9.9
2023-04-29T04:30:44.000Z,9.9
2023-04-29T04:31:50.000Z,9.9
2023-04-29T04:32:56.000Z,9.7
2023-04-29T04:34:02.000Z,9.9
2023-04-29T04:35:08.000Z,9.9
2023-04-29T04:36:14.000Z,9.7
2023-04-29T04:37:20.000Z,9.9
2023-04-29T04:39:33.000Z,9.9
2023-04-29T04:40:38.000Z,9.7
2023-04-29T04:41:44.000Z,9.9
2023-04-29T04:42:50.000Z,9.9
2023-04-29T04:45:02.000Z,9.9
2023-04-29T04:46:08.000Z,9.7
2023-04-29T04:47:14.000Z,9.8
2023-04-29T04:48:20.000Z,9.9
2023-04-29T04:50:32.000Z,9.9
2023-04-29T04:51:38.000Z,9.7
2023-04-29T04:52:43.000Z,9.9
2023-04-29T04:53:49.000Z,9.9
2023-04-29T04:54:55.000Z,9.9
2023-04-29T04:56:01.000Z,9.7
2023-04-29T04:57:07.000Z,9.9
2023-04-29T04:58:13.000Z,9.8
2023-04-29T04:59:19.000Z,9.9
2023-04-29T05:00:25.000Z,9.8
2023-04-29T05:01:31.000Z,9.7
2023-04-29T05:02:37.000Z,9.7
2023-04-29T05:03:43.000Z,9.9
2023-04-29T05:04:48.000Z,9.9
2023-04-29T05:05:54.000Z,10
2023-04-29T05:07:00.000Z,9.9
2023-04-29T05:09:12.000Z,9.9
2023-04-29T05:10:18.000Z,9.9
2023-04-29T05:11:24.000Z,9.8
2023-04-29T05:12:30.000Z,9.9
2023-04-29T05:13:36.000Z,9.9
2023-04-29T05:15:48.000Z,9.9
2023-04-29T05:18:00.000Z,9.9
2023-04-29T05:19:06.000Z,9.9
2023-04-29T05:20:12.000Z,9.7
2023-04-29T05:21:18.000Z,9.8
2023-04-29T05:22:23.000Z,9.9
2023-04-29T05:23:29.000Z,9.9
2023-04-29T05:24:35.000Z,9.9
2023-04-29T05:25:41.000Z,9.9
2023-04-29T05:26:47.000Z,9.9
2023-04-29T05:27:53.000Z,9.7
2023-04-29T05:28:59.000Z,9.9
2023-04-29T05:30:05.000Z,9.9
2023-04-29T05:31:11.000Z,9.9
2023-04-29T05:32:17.000Z,9.9
2023-04-29T05:33:22.000Z,9.9
2023-04-29T05:34:28.000Z,9.9
2023-04-29T05:35:34.000Z,9.9
2023-04-29T05:38:52.000Z,9.9
2023-04-29T05:39:58.000Z,9.7
2023-04-29T05:41:04.000Z,9.7
2023-04-29T05:42:10.000Z,9.9
2023-04-29T05:43:16.000Z,9.7
2023-04-29T05:45:28.000Z,9.9
2023-04-29T05:46:34.000Z,9.9
2023-04-29T05:47:40.000Z,9.9
2023-04-29T05:48:45.000Z,9.9
2023-04-29T05:49:51.000Z,9.7
2023-04-29T05:50:57.000Z,9.9
2023-04-29T05:52:03.000Z,9.9
2023-04-29T05:53:09.000Z,9.9
2023-04-29T05:54:15.000Z,9.7
2023-04-29T05:56:27.000Z,9.8
2023-04-29T05:57:33.000Z,9.9
2023-04-29T05:58:39.000Z,9.7
2023-04-29T06:01:58.000Z,9.8
2023-04-29T06:05:15.000Z,9.9
2023-04-29T06:06:20.000Z,9.9
2023-04-29T06:07:26.000Z,9.9
2023-04-29T06:08:31.000Z,9.9
2023-04-29T06:09:37.000Z,9.9
2023-04-29T06:10:43.000Z,9.7
2023-04-29T06:11:49.000Z,9.9
2023-04-29T06:12:55.000Z,9.8
2023-04-29T06:14:01.000Z,9.8
2023-04-29T06:15:08.000Z,9.8
2023-04-29T06:16:14.000Z,9.8
2023-04-29T06:17:20.000Z,9.8
2023-04-29T06:18:26.000Z,9.9
2023-04-29T06:19:31.000Z,10
2023-04-29T06:20:36.000Z,9.9
2023-04-29T06:21:42.000Z,9.7
2023-04-29T06:22:48.000Z,9.8
2023-04-29T06:23:54.000Z,9.8
2023-04-29T06:25:00.000Z,9.8
2023-04-29T06:27:12.000Z,9.9
2023-04-29T06:28:18.000Z,9.9
2023-04-29T06:29:24.000Z,9.9
2023-04-29T06:32:43.000Z,9.9
2023-04-29T06:33:49.000Z,9.7
2023-04-29T06:34:54.000Z,9.7
2023-04-29T06:35:59.000Z,9.9
2023-04-29T06:37:05.000Z,9.8
2023-04-29T06:38:11.000Z,9.8
2023-04-29T06:39:17.000Z,9.7
2023-04-29T06:40:23.000Z,9.7
2023-04-29T06:41:29.000Z,9.9
2023-04-29T06:42:35.000Z,9.9
2023-04-29T06:43:42.000Z,9.7
2023-04-29T06:44:48.000Z,9.7
2023-04-29T06:45:54.000Z,9.9
2023-04-29T06:46:59.000Z,9.7
2023-04-29T06:48:04.000Z,9.9
2023-04-29T06:49:10.000Z,9.7
2023-04-29T06:51:22.000Z,9.9
2023-04-29T06:52:28.000Z,9.9
2023-04-29T06:53:34.000Z,9.9
2023-04-29T06:54:40.000Z,9.9
2023-04-29T06:55:46.000Z,9.9
2023-04-29T06:56:53.000Z,9.9
2023-04-29T06:57:59.000Z,9.9
2023-04-29T06:59:05.000Z,9.9
2023-04-29T07:02:23.000Z,10
2023-04-29T07:03:29.000Z,9.9
2023-04-29T07:04:34.000Z,9.7
2023-04-29T07:05:40.000Z,9.9
2023-04-29T07:06:45.000Z,10
2023-04-29T07:07:51.000Z,9.9
2023-04-29T07:08:57.000Z,9.9
2023-04-29T07:10:03.000Z,9.9
2023-04-29T07:11:09.000Z,9.9
2023-04-29T07:12:16.000Z,9.9
2023-04-29T07:13:22.000Z,9.9
2023-04-29T07:14:28.000Z,9.9
2023-04-29T07:15:34.249Z,9.8
2023-04-29T07:16:39.000Z,9.9
2023-04-29T07:17:45.000Z,9.9
2023-04-29T07:18:50.000Z,9.9
2023-04-29T07:19:56.000Z,9.8
2023-04-29T07:21:02.000Z,9.9
2023-04-29T07:22:08.000Z,9.9
2023-04-29T07:23:14.000Z,9.7
2023-04-29T07:24:20.000Z,9.7
2023-04-29T07:25:26.000Z,9.7
2023-04-29T07:26:33.000Z,9.9
2023-04-29T07:27:39.000Z,9.9
2023-04-29T07:28:44.000Z,9.9
2023-04-29T07:29:50.000Z,9.9
2023-04-29T07:30:55.000Z,9.9
2023-04-29T07:32:01.000Z,9.7
2023-04-29T07:33:07.000Z,9.8
2023-04-29T07:34:13.000Z,9.9
2023-04-29T07:35:19.000Z,9.7
2023-04-29T07:36:25.000Z,9.7
2023-04-29T07:37:31.000Z,9.9
2023-04-29T07:38:37.000Z,9.7
2023-04-29T07:39:43.000Z,9.7
2023-04-29T07:40:50.000Z,10
2023-04-29T07:41:56.000Z,9.7
2023-04-29T07:43:02.000Z,9.7
2023-04-29T07:44:08.000Z,9.9
2023-04-29T07:46:20.394Z,9.8
2023-04-29T07:47:25.000Z,9.9
2023-04-29T07:48:31.000Z,9.7
2023-04-29T07:49:37.000Z,9.7
2023-04-29T07:50:43.000Z,9.9
2023-04-29T07:51:49.000Z,9.7
2023-04-29T07:54:01.000Z,9.9
2023-04-29T07:55:07.000Z,9.9
2023-04-29T07:57:20.000Z,9.7
2023-04-29T07:58:25.000Z,9.7
2023-04-29T07:59:30.000Z,10
2023-04-29T08:00:36.000Z,9.9
2023-04-29T08:02:48.000Z,9.7
2023-04-29T08:03:54.000Z,9.7
2023-04-29T08:05:00.000Z,9.7
2023-04-29T08:06:06.000Z,9.8
2023-04-29T08:08:18.000Z,9.7
2023-04-29T08:09:25.000Z,9.8
2023-04-29T08:10:31.000Z,9.8
2023-04-29T08:11:37.000Z,9.7
2023-04-29T08:12:42.000Z,9.8
2023-04-29T08:13:47.000Z,9.7
2023-04-29T08:14:53.000Z,9.9
2023-04-29T08:15:59.000Z,9.8
2023-04-29T08:17:05.000Z,9.8
2023-04-29T08:18:11.000Z,9.9
2023-04-29T08:19:17.000Z,9.7
2023-04-29T08:20:23.000Z,9.8
2023-04-29T08:21:29.000Z,9.8
2023-04-29T08:22:35.000Z,9.8
2023-04-29T08:23:42.000Z,9.8
2023-04-29T08:24:47.000Z,9.8
2023-04-29T08:25:53.000Z,9.7
2023-04-29T08:26:58.000Z,9.7
2023-04-29T08:28:04.000Z,9.7
2023-04-29T08:29:10.000Z,9.8
2023-04-29T08:30:16.000Z,9.8
2023-04-29T08:31:22.000Z,9.7
2023-04-29T08:32:28.000Z,9.7
2023-04-29T08:33:34.000Z,9.7
2023-04-29T08:34:40.000Z,9.7
2023-04-29T08:35:46.000Z,9.7
2023-04-29T08:36:53.000Z,9.7
2023-04-29T08:37:58.000Z,9.8
2023-04-29T08:39:03.000Z,9.7
2023-04-29T08:40:09.000Z,9.7
2023-04-29T08:41:15.000Z,9.7
2023-04-29T08:42:21.000Z,9.8
2023-04-29T08:43:27.000Z,9.7
2023-04-29T08:44:33.000Z,9.7
2023-04-29T08:45:38.000Z,9.7
2023-04-29T08:46:44.000Z,9.8
2023-04-29T08:47:50.000Z,9.7
2023-04-29T08:48:56.000Z,9.7
2023-04-29T08:50:03.000Z,9.7
2023-04-29T08:52:15.000Z,9.8
2023-04-29T08:53:21.000Z,9.7
2023-04-29T08:54:27.000Z,9.7
2023-04-29T08:55:33.000Z,9.8
2023-04-29T08:56:39.000Z,9.8
2023-04-29T08:57:45.000Z,9.7
2023-04-29T08:58:51.000Z,9.7
2023-04-29T08:59:56.000Z,9.7
2023-04-29T09:03:14.000Z,9.8
2023-04-29T09:04:19.000Z,9.7
2023-04-29T09:05:25.000Z,9.8
2023-04-29T09:06:31.000Z,9.7
2023-04-29T09:07:37.000Z,9.9
2023-04-29T09:08:43.000Z,9.8
2023-04-29T09:09:49.000Z,9.7
2023-04-29T09:10:55.000Z,9.7
2023-04-29T09:12:01.000Z,9.8
2023-04-29T09:14:13.000Z,9.7
2023-04-29T09:15:19.000Z,9.8
2023-04-29T09:16:25.000Z,9.8
2023-04-29T09:17:31.000Z,9.7
2023-04-29T09:18:38.000Z,9.8
2023-04-29T09:19:43.000Z,9.8
2023-04-29T09:20:49.000Z,9.7
2023-04-29T09:21:55.000Z,9.7
2023-04-29T09:23:01.000Z,9.7
2023-04-29T09:24:07.000Z,9.8
2023-04-29T09:25:13.000Z,9.7
2023-04-29T09:26:19.000Z,9.8
2023-04-29T09:27:25.000Z,9.8
2023-04-29T09:28:31.000Z,9.7
2023-04-29T09:29:36.000Z,9.7
2023-04-29T09:30:41.000Z,9.7
2023-04-29T09:31:47.000Z,9.7
2023-04-29T09:34:00.000Z,9.7
2023-04-29T09:35:06.000Z,9.7
2023-04-29T09:36:12.000Z,9.8
2023-04-29T09:37:18.000Z,9.8
2023-04-29T09:38:24.000Z,9.8
2023-04-29T09:39:30.000Z,9.7
2023-04-29T09:40:36.000Z,9.8
2023-04-29T09:41:42.000Z,9.7
2023-04-29T09:42:48.000Z,9.8
2023-04-29T09:43:54.000Z,9.7
2023-04-29T09:45:00.000Z,9.8
2023-04-29T09:47:12.000Z,9.7
2023-04-29T09:48:17.000Z,9.7
2023-04-29T09:49:23.000Z,9.7
2023-04-29T09:50:28.000Z,9.7
2023-04-29T09:51:34.000Z,9.8
2023-04-29T09:52:40.000Z,9.8
2023-04-29T09:54:52.000Z,9.7
2023-04-29T09:55:58.000Z,9.8
2023-04-29T09:58:10.000Z,9.8
2023-04-29T09:59:16.000Z,9.7
2023-04-29T10:00:22.000Z,9.7
2023-04-29T10:01:28.000Z,9.7
2023-04-29T10:02:34.000Z,9.7
2023-04-29T10:03:40.000Z,9.7
2023-04-29T10:04:46.000Z,9.7
2023-04-29T10:05:52.000Z,9.7
2023-04-29T10:06:57.000Z,9.7
2023-04-29T10:10:15.000Z,9.7
2023-04-29T10:11:21.000Z,9.7
2023-04-29T10:12:27.000Z,9.8
2023-04-29T10:13:33.000Z,9.7
2023-04-29T10:14:39.000Z,9.7
2023-04-29T10:15:45.000Z,9.7
2023-04-29T10:16:52.000Z,9.7
2023-04-29T10:17:58.000Z,9.8
2023-04-29T10:20:10.000Z,9.8
2023-04-29T10:21:15.000Z,9.7
2023-04-29T10:22:21.000Z,9.7
2023-04-29T10:23:27.000Z,9.7
2023-04-29T10:24:33.000Z,9.7
2023-04-29T10:25:39.000Z,9.7
2023-04-29T10:27:51.000Z,9.7
2023-04-29T10:28:57.000Z,9.8
2023-04-29T10:30:04.000Z,9.8
2023-04-29T10:31:10.000Z,9.8
2023-04-29T10:32:16.000Z,9.8
2023-04-29T10:34:28.000Z,9.7
2023-04-29T10:35:33.000Z,9.7
2023-04-29T10:36:39.000Z,9.7
2023-04-29T10:37:45.000Z,9.7
2023-04-29T10:38:51.000Z,9.7
2023-04-29T10:39:57.000Z,9.8
2023-04-29T10:42:09.000Z,9.8
2023-04-29T10:43:15.000Z,9.7
2023-04-29T10:44:22.000Z,9.7
2023-04-29T10:45:28.000Z,9.7
2023-04-29T10:46:34.000Z,9.8
2023-04-29T10:47:40.000Z,9.8
2023-04-29T10:48:46.000Z,9.7
2023-04-29T10:49:51.000Z,9.7
2023-04-29T10:50:57.000Z,9.8
2023-04-29T10:53:09.000Z,9.7
2023-04-29T10:54:15.000Z,9.7
2023-04-29T10:55:21.000Z,9.7
2023-04-29T10:56:27.000Z,9.7
2023-04-29T10:58:39.000Z,9.8
2023-04-29T10:59:46.000Z,9.7
2023-04-29T11:00:52.000Z,9.8
2023-04-29T11:01:58.000Z,9.7
2023-04-29T11:05:16.000Z,9.7
2023-04-29T11:06:22.000Z,9.8
2023-04-29T11:07:27.000Z,9.8
2023-04-29T11:08:33.000Z,9.8
2023-04-29T11:09:39.000Z,9.7
2023-04-29T11:10:45.000Z,9.8
2023-04-29T11:11:51.000Z,9.8
2023-04-29T11:12:57.000Z,9.8
2023-04-29T11:14:03.000Z,9.7
2023-04-29T11:15:10.000Z,9.5
2023-04-29T11:16:16.000Z,9.8
2023-04-29T11:17:22.000Z,9.7
2023-04-29T11:18:28.000Z,9.7
2023-04-29T11:19:34.000Z,9.7
2023-04-29T11:20:40.000Z,9.8
2023-04-29T11:21:45.000Z,9.7
2023-04-29T11:22:51.000Z,9.8
2023-04-29T11:23:57.000Z,9.7
2023-04-29T11:25:03.000Z,9.8
2023-04-29T11:26:09.000Z,9.7
2023-04-29T11:27:16.000Z,9.8
2023-04-29T11:28:21.000Z,9.7
2023-04-29T11:29:27.000Z,9.7
2023-04-29T11:30:32.000Z,9.7
2023-04-29T11:31:38.000Z,9.8
2023-04-29T11:32:44.000Z,9.7
2023-04-29T11:33:50.000Z,9.7
2023-04-29T11:34:56.000Z,9.8
2023-04-29T11:37:08.000Z,9.7
2023-04-29T11:38:14.000Z,9.7
2023-04-29T11:39:20.000Z,9.7
2023-04-29T11:40:26.000Z,9.8
2023-04-29T11:41:33.000Z,9.8
2023-04-29T11:42:39.000Z,9.7
2023-04-29T11:43:45.000Z,9.8
2023-04-29T11:44:50.000Z,9.7
2023-04-29T11:45:56.000Z,9.7
2023-04-29T11:47:02.000Z,9.9
2023-04-29T11:48:08.000Z,9.7
2023-04-29T11:49:14.000Z,9.8
2023-04-29T11:50:20.000Z,9.8
2023-04-29T11:51:26.000Z,9.7
2023-04-29T11:52:31.000Z,9.8
2023-04-29T11:53:36.000Z,9.7
2023-04-29T11:54:42.000Z,9.7
2023-04-29T11:55:48.000Z,9.7
2023-04-29T11:56:55.000Z,9.7
2023-04-29T11:59:07.000Z,9.7
2023-04-29T12:00:13.000Z,9.7
2023-04-29T12:01:19.000Z,9.8
2023-04-29T12:02:25.000Z,9.9
2023-04-29T12:03:31.000Z,9.7
2023-04-29T12:04:37.000Z,9.9
2023-04-29T12:05:43.000Z,9.7
2023-04-29T12:06:49.000Z,9.7
2023-04-29T12:07:54.000Z,9.8
2023-04-29T12:10:07.000Z,10
2023-04-29T12:11:12.000Z,9.7
2023-04-29T12:12:17.000Z,9.7
2023-04-29T12:13:23.000Z,9.9
2023-04-29T12:14:29.000Z,9.8
2023-04-29T12:15:35.000Z,9.7
2023-04-29T12:16:41.000Z,9.7
2023-04-29T12:17:47.000Z,9.7
2023-04-29T12:18:53.000Z,9.9
2023-04-29T12:19:59.000Z,9.7
2023-04-29T12:22:11.000Z,9.9
2023-04-29T12:23:17.000Z,9.9
2023-04-29T12:24:24.000Z,9.7
2023-04-29T12:25:30.000Z,9.9
2023-04-29T12:26:35.000Z,9.9
2023-04-29T12:27:41.000Z,9.7
2023-04-29T12:28:47.000Z,9.9
2023-04-29T12:29:53.000Z,9.9
2023-04-29T12:32:05.000Z,10
2023-04-29T12:33:10.000Z,9.9
2023-04-29T12:34:16.000Z,9.9
2023-04-29T12:35:21.000Z,9.9
2023-04-29T12:36:27.000Z,9.8
2023-04-29T12:37:34.000Z,9.9
2023-04-29T12:38:40.000Z,10
2023-04-29T12:39:46.000Z,9.9
2023-04-29T12:40:52.000Z,9.9
2023-04-29T12:43:04.000Z,9.9
2023-04-29T12:44:10.000Z,9.9
2023-04-29T12:45:16.000Z,9.9
2023-04-29T12:46:22.000Z,10
2023-04-29T12:47:28.000Z,9.9
2023-04-29T12:48:34.000Z,9.9
2023-04-29T12:49:39.000Z,9.9
2023-04-29T12:50:45.000Z,9.9
2023-04-29T12:51:51.000Z,9.9
2023-04-29T12:52:58.000Z,9.9
2023-04-29T12:54:04.000Z,9.9
2023-04-29T12:55:10.000Z,9.9
2023-04-29T12:56:16.000Z,9.9
2023-04-29T12:57:21.000Z,9.9
2023-04-29T12:58:26.000Z,9.9
2023-04-29T12:59:32.000Z,9.9
2023-04-29T13:00:38.000Z,9.9
2023-04-29T13:01:44.000Z,9.9
2023-04-29T13:02:50.000Z,9.9
2023-04-29T13:05:02.000Z,9.9
2023-04-29T13:06:08.000Z,10.1
2023-04-29T13:07:15.000Z,9.9
2023-04-29T13:08:21.000Z,9.9
2023-04-29T13:09:27.000Z,9.9
2023-04-29T13:10:33.000Z,9.9
2023-04-29T13:11:39.000Z,9.9
2023-04-29T13:12:44.000Z,9.8
2023-04-29T13:13:50.000Z,9.9
2023-04-29T13:14:56.000Z,9.9
2023-04-29T13:16:02.000Z,9.9
2023-04-29T13:17:08.000Z,9.9
2023-04-29T13:18:14.000Z,9.9
2023-04-29T13:19:20.000Z,9.9
2023-04-29T13:20:26.000Z,9.9
2023-04-29T13:21:32.000Z,9.9
2023-04-29T13:22:37.000Z,9.9
2023-04-29T13:23:43.000Z,9.9
2023-04-29T13:24:49.000Z,9.9
2023-04-29T13:27:01.000Z,9.9
2023-04-29T13:28:07.000Z,9.9
2023-04-29T13:29:13.000Z,9.9
2023-04-29T13:30:19.000Z,9.9
2023-04-29T13:31:25.000Z,9.9
2023-04-29T13:32:31.000Z,9.9
2023-04-29T13:33:37.000Z,10
2023-04-29T13:34:43.000Z,9.9
2023-04-29T13:35:50.000Z,9.9
2023-04-29T13:38:01.000Z,9.9
2023-04-29T13:39:06.000Z,9.9
2023-04-29T13:40:11.000Z,9.9
2023-04-29T13:41:17.000Z,9.9
2023-04-29T13:43:29.000Z,9.9
2023-04-29T13:45:41.000Z,9.9
2023-04-29T13:46:47.000Z,9.9
2023-04-29T13:47:53.000Z,9.9
2023-04-29T13:48:59.000Z,9.9
2023-04-29T13:50:05.000Z,9.9
2023-04-29T13:51:12.000Z,9.9
2023-04-29T13:52:18.000Z,9.9
2023-04-29T13:53:23.000Z,9.9
2023-04-29T13:54:28.000Z,9.9
2023-04-29T13:56:40.000Z,9.9
2023-04-29T13:58:52.000Z,9.9
2023-04-29T13:59:58.000Z,9.9
2023-04-29T14:01:04.000Z,9.9
2023-04-29T14:02:11.000Z,9.9
2023-04-29T14:03:17.000Z,9.9
2023-04-29T14:04:23.000Z,9.9
2023-04-29T14:05:29.000Z,9.9
2023-04-29T14:06:35.000Z,10
2023-04-29T14:07:41.000Z,9.9
2023-04-29T14:08:47.000Z,9.9
2023-04-29T14:10:58.000Z,9.9
2023-04-29T14:12:04.000Z,9.9
2023-04-29T14:13:10.000Z,9.9
2023-04-29T14:14:16.000Z,9.9
2023-04-29T14:15:22.000Z,9.9
2023-04-29T14:16:28.000Z,9.9
2023-04-29T14:17:35.000Z,9.9
2023-04-29T14:18:41.000Z,9.9
2023-04-29T14:19:47.000Z,9.9
2023-04-29T14:20:53.000Z,10
2023-04-29T14:21:59.000Z,9.9
2023-04-29T14:23:05.000Z,10
2023-04-29T14:24:11.000Z,9.9
2023-04-29T14:25:16.000Z,9.9
2023-04-29T14:26:21.000Z,9.9
2023-04-29T14:27:27.000Z,9.9
2023-04-29T14:28:33.000Z,9.9
2023-04-29T14:29:39.000Z,9.9
2023-04-29T14:30:45.000Z,9.9
2023-04-29T14:32:58.000Z,9.9
2023-04-29T14:34:04.000Z,9.9
2023-04-29T14:35:10.000Z,9.9
2023-04-29T14:36:16.000Z,9.9
2023-04-29T14:37:22.000Z,9.9
2023-04-29T14:38:28.000Z,10
2023-04-29T14:39:34.000Z,9.9
2023-04-29T14:40:39.000Z,9.9
2023-04-29T14:41:45.000Z,9.9
2023-04-29T14:42:51.000Z,9.9
2023-04-29T14:43:57.000Z,9.9
2023-04-29T14:45:03.000Z,9.9
2023-04-29T14:46:10.000Z,9.9
2023-04-29T14:47:16.000Z,9.9
2023-04-29T14:49:28.000Z,9.8
2023-04-29T14:50:34.000Z,9.7
2023-04-29T14:51:40.000Z,9.9
2023-04-29T14:52:46.000Z,9.9
2023-04-29T14:53:52.000Z,10
2023-04-29T14:54:58.000Z,10
2023-04-29T14:56:03.000Z,9.9
2023-04-29T14:57:08.000Z,9.8
2023-04-29T14:58:14.000Z,9.9
2023-04-29T14:59:20.000Z,9.9
2023-04-29T15:00:27.000Z,9.9
2023-04-29T15:01:33.000Z,9.9
2023-04-29T15:02:39.000Z,9.9
2023-04-29T15:03:45.000Z,9.9
2023-04-29T15:05:57.000Z,9.9
2023-04-29T15:07:03.000Z,9.9
2023-04-29T15:08:09.000Z,9.9
2023-04-29T15:09:15.000Z,9.7
2023-04-29T15:10:21.000Z,9.9
2023-04-29T15:11:26.000Z,9.9
2023-04-29T15:12:32.000Z,9.9
2023-04-29T15:13:38.000Z,9.9
2023-04-29T15:14:45.000Z,9.9
2023-04-29T15:16:57.000Z,9.9
2023-04-29T15:18:02.000Z,9.9
2023-04-29T15:19:08.000Z,9.9
2023-04-29T15:20:13.000Z,9.9
2023-04-29T15:21:19.000Z,10
2023-04-29T15:22:25.000Z,9.9
2023-04-29T15:23:31.000Z,9.9
2023-04-29T15:24:37.000Z,9.9
2023-04-29T15:25:43.000Z,9.9
2023-04-29T15:27:56.000Z,9.9
2023-04-29T15:29:02.000Z,9.9
2023-04-29T15:30:08.000Z,9.9
2023-04-29T15:31:14.000Z,9.9
2023-04-29T15:32:20.000Z,9.9
2023-04-29T15:33:26.000Z,9.9
2023-04-29T15:34:31.000Z,10
2023-04-29T15:35:37.000Z,9.7
2023-04-29T15:36:43.000Z,9.9
2023-04-29T15:37:49.000Z,9.9
2023-04-29T15:38:55.000Z,9.7
2023-04-29T15:40:01.000Z,9.9
2023-04-29T15:41:07.000Z,9.7
2023-04-29T15:42:13.000Z,9.9
2023-04-29T15:43:18.000Z,9.9
2023-04-29T15:44:24.000Z,9.9
2023-04-29T15:45:30.000Z,9.9
2023-04-29T15:46:36.000Z,9.9
2023-04-29T15:47:42.000Z,9.9
2023-04-29T15:48:48.000Z,9.9
2023-04-29T15:51:00.000Z,9.9
2023-04-29T15:52:06.000Z,9.9
2023-04-29T15:53:12.000Z,9.9
2023-04-29T15:54:18.000Z,9.9
2023-04-29T15:55:24.000Z,9.9
2023-04-29T15:56:30.000Z,9.9
2023-04-29T15:57:37.000Z,9.9
2023-04-29T15:58:42.000Z,9.9
2023-04-29T16:00:54.000Z,9.9
2023-04-29T16:01:59.000Z,9.9
2023-04-29T16:03:04.000Z,9.9
2023-04-29T16:04:10.000Z,9.9
2023-04-29T16:05:16.000Z,10
2023-04-29T16:06:22.000Z,9.9
2023-04-29T16:07:27.000Z,9.9
2023-04-29T16:08:33.000Z,9.9
2023-04-29T16:09:40.000Z,9.9
2023-04-29T16:11:52.000Z,9.9
2023-04-29T16:12:58.000Z,9.9
2023-04-29T16:14:04.000Z,9.9
2023-04-29T16:15:10.000Z,9.9
2023-04-29T16:16:16.000Z,9.9
2023-04-29T16:17:22.000Z,9.9
2023-04-29T16:18:28.000Z,10.1
2023-04-29T16:19:34.000Z,9.9
2023-04-29T16:20:40.000Z,9.9
2023-04-29T16:22:51.000Z,9.9
2023-04-29T16:25:04.000Z,9.9
2023-04-29T16:26:09.000Z,9.9
2023-04-29T16:27:14.000Z,9.9
2023-04-29T16:28:20.000Z,10
2023-04-29T16:29:26.000Z,9.9
2023-04-29T16:30:32.000Z,9.9
2023-04-29T16:31:38.000Z,9.9
2023-04-29T16:33:50.000Z,9.9
2023-04-29T16:34:56.000Z,9.9